GCC Virtual Airport Information Service

Munich Airport

ICAO: EDDM Country: DE
Latitude: 48.3538 Longitude: 11.7861
Latest Arrival : QTR57 (OTHH-EDDM) Latest Departure : KAC144 (EDDM-OKBK)


WX CaptureLIVE
Data provided by noaa.gov | Fetched at 07:53:25

METAR : EDDM 270720Z 23001KT CAVOK M08/M09 Q1017 R26L/290095 NOSIG

TAF : EDDM 270500Z 2706/2812 23008KT 9999 SCT025 TEMPO 2707/2711 VRB03KT TEMPO 2715/2720 3500 -SN BKN012 PROB30 TEMPO 2715/2720 2500 SN BKN008


Runway Data for EDDM
Data provided by openaviationdata.com

Runway ID Mag Var Hdg Length Elevation Surface ILS Freq ILS Id ILS Slope
08L 1 82° 13097 ft 1486 ft Concrete 109.5 IMNE 3
08R 1 82° 13097 ft 1486 ft Concrete 109.3 IMSE 3
26L 1 262° 13097 ft 1486 ft Concrete 108.3 IMSW 3
26R 1 262° 13097 ft 1486 ft Concrete 108.7 IMNW 3

Munich Airport, DE
Use only for reference purposes



Not for navigational purposes.